Time;durP1;ratioP1;P1;durP2;ratioP2;P2;SDS_P1;SDS_P2;PMS_P1;PMS_P2;Temp;Humidity;BMP_temperature;BMP_pressure;BME280_temperature;BME280_humidity;BME280_pressure;Samples;Min_cycle;Max_cycle;Signal;HPM_P1;HPM_P2
2023/06/17 00:01:29;;;;;;;3.47;2.87;;;;;;;13.37;74.51;97602.06;6241331;28;20267;-44
2023/06/17 00:04:32;;;;;;;3.00;2.70;;;;;;;13.31;74.59;97595.88;6239446;28;20231;-46
2023/06/17 00:07:34;;;;;;;4.50;3.20;;;;;;;13.22;76.29;97605.47;6242900;28;20304;-44
2023/06/17 00:10:36;;;;;;;3.00;2.67;;;;;;;13.06;75.81;97591.19;6239870;28;20223;-43
2023/06/17 00:13:39;;;;;;;3.23;2.83;;;;;;;13.13;76.18;97607.78;6240480;28;20783;-44
2023/06/17 00:16:43;;;;;;;3.43;3.13;;;;;;;13.13;76.23;97601.63;6235247;28;20238;-45
2023/06/17 00:19:46;;;;;;;3.57;2.90;;;;;;;13.14;76.63;97603.25;6237007;28;20282;-44
2023/06/17 00:22:48;;;;;;;3.33;2.93;;;;;;;13.16;77.20;97609.97;6242599;28;20254;-45
2023/06/17 00:25:50;;;;;;;3.77;2.90;;;;;;;13.15;77.07;97604.84;6203787;28;20231;-44
2023/06/17 00:28:53;;;;;;;3.03;2.73;;;;;;;13.16;77.72;97607.28;6201638;28;20308;-44
2023/06/17 00:31:56;;;;;;;4.87;3.20;;;;;;;13.16;77.81;97607.28;6238639;28;20229;-44
2023/06/17 00:34:58;;;;;;;3.53;3.23;;;;;;;13.11;78.08;97590.41;6239138;28;20231;-45
2023/06/17 00:38:01;;;;;;;5.73;3.13;;;;;;;13.15;77.94;97600.31;6235535;28;20301;-45
2023/06/17 00:41:03;;;;;;;3.50;2.70;;;;;;;13.11;77.69;97593.88;6240012;28;20235;-44
2023/06/17 00:44:06;;;;;;;5.20;2.97;;;;;;;13.08;78.48;97599.75;6238706;28;20702;-43
2023/06/17 00:47:11;;;;;;;5.17;3.10;;;;;;;13.06;78.69;97593.84;6238378;28;20239;-43
2023/06/17 00:50:15;;;;;;;3.03;2.73;;;;;;;13.05;79.01;97589.59;6218453;28;20234;-44
2023/06/17 00:53:17;;;;;;;3.63;2.93;;;;;;;12.83;79.34;97554.97;6240878;28;20269;-44
2023/06/17 00:56:20;;;;;;;4.57;3.60;;;;;;;13.06;79.11;97598.41;6238838;28;20299;-44
2023/06/17 00:59:22;;;;;;;3.77;3.20;;;;;;;13.07;79.18;97592.00;6221903;28;20235;-45
2023/06/17 01:02:26;;;;;;;3.63;3.03;;;;;;;13.04;79.11;97597.84;6225031;28;20268;-44
2023/06/17 01:05:28;;;;;;;3.50;3.10;;;;;;;13.03;79.58;97590.88;6206412;28;20321;-44
2023/06/17 01:08:57;;;;;;;4.23;3.63;;;;;;;13.02;79.72;97592.75;6238729;28;20247;-44
2023/06/17 01:12:02;;;;;;;3.13;2.83;;;;;;;13.00;79.55;97589.53;6238727;28;20238;-44
2023/06/17 01:15:05;;;;;;;3.97;3.50;;;;;;;12.99;79.38;97587.13;6240629;28;20343;-44
2023/06/17 01:18:08;;;;;;;5.33;3.10;;;;;;;13.09;79.02;97597.88;6219815;28;20234;-44
2023/06/17 01:21:12;;;;;;;3.83;3.43;;;;;;;13.20;78.64;97593.38;6216956;28;20261;-43
2023/06/17 01:24:27;;;;;;;3.20;2.90;;;;;;;13.36;77.73;97584.41;6236813;28;20259;-43
2023/06/17 01:27:33;;;;;;;4.07;3.50;;;;;;;13.44;77.35;97586.53;6236440;28;20247;-45
2023/06/17 01:30:35;;;;;;;3.63;3.27;;;;;;;13.45;77.58;97595.38;6238778;28;20231;-44
2023/06/17 01:33:41;;;;;;;4.83;3.10;;;;;;;13.37;78.21;97586.00;6235015;28;20253;-45
2023/06/17 01:36:45;;;;;;;4.50;3.67;;;;;;;13.29;78.41;97589.97;6240802;28;20227;-54
2023/06/17 01:39:51;;;;;;;3.83;3.07;;;;;;;13.16;78.81;97580.53;6237464;28;20697;-51
2023/06/17 01:42:54;;;;;;;4.33;3.13;;;;;;;13.12;79.54;97592.00;6226505;28;20254;-44
2023/06/17 01:45:58;;;;;;;3.13;2.83;;;;;;;13.02;79.82;97592.75;6244729;28;20238;-54
2023/06/17 01:49:00;;;;;;;4.53;3.30;;;;;;;12.98;80.43;97588.19;6216435;28;20235;-46
2023/06/17 01:52:03;;;;;;;3.70;3.30;;;;;;;12.92;80.43;97590.03;6242219;28;20227;-51
2023/06/17 01:55:06;;;;;;;4.10;3.00;;;;;;;12.88;80.43;97584.38;6246531;28;20308;-45
2023/06/17 01:58:10;;;;;;;3.80;3.33;;;;;;;12.76;80.75;97581.13;6242355;28;20227;-48
2023/06/17 02:01:12;;;;;;;4.40;3.50;;;;;;;12.82;80.92;97590.78;6226713;28;20322;-44
2023/06/17 02:04:14;;;;;;;4.73;3.67;;;;;;;12.77;81.61;97595.28;6239999;28;20227;-44
2023/06/17 02:07:17;;;;;;;4.20;3.57;;;;;;;12.73;82.06;97599.53;6242838;28;20318;-44
2023/06/17 02:10:19;;;;;;;5.00;4.00;;;;;;;12.63;82.47;97594.94;6243399;28;20265;-45
2023/06/17 02:13:22;;;;;;;4.23;3.40;;;;;;;12.42;83.07;97564.59;6209903;28;20272;-51
2023/06/17 02:16:25;;;;;;;4.57;3.77;;;;;;;12.56;82.96;97597.00;6224838;28;20322;-43
2023/06/17 02:19:31;;;;;;;5.87;3.90;;;;;;;12.55;83.43;97600.75;6224725;28;20321;-44
2023/06/17 02:22:34;;;;;;;5.20;3.93;;;;;;;12.65;83.29;97606.97;6242351;28;20310;-46
2023/06/17 02:25:39;;;;;;;4.57;4.00;;;;;;;12.66;83.23;97602.44;6241546;28;20257;-45
2023/06/17 02:28:42;;;;;;;4.93;3.97;;;;;;;12.74;82.90;97609.16;6238187;28;20639;-45
2023/06/17 02:31:44;;;;;;;4.30;3.90;;;;;;;12.79;82.53;97606.53;6237866;28;20235;-43
2023/06/17 02:34:50;;;;;;;6.00;3.50;;;;;;;12.81;82.82;97599.06;6224587;28;20244;-44
2023/06/17 02:37:54;;;;;;;5.97;3.97;;;;;;;12.80;83.20;97595.56;6241722;28;20735;-43
2023/06/17 02:40:58;;;;;;;3.90;3.47;;;;;;;12.85;83.23;97606.28;6242848;28;20231;-45
2023/06/17 02:44:00;;;;;;;6.67;3.93;;;;;;;12.81;82.98;97602.53;6204831;28;20365;-44
2023/06/17 02:47:03;;;;;;;4.07;3.40;;;;;;;12.78;83.03;97603.03;6240406;28;20242;-44
2023/06/17 02:50:07;;;;;;;5.93;3.80;;;;;;;12.79;82.78;97606.53;6221660;28;20757;-44
2023/06/17 02:53:10;;;;;;;3.57;3.27;;;;;;;12.81;82.88;97599.88;6222868;28;20265;-44
2023/06/17 02:56:13;;;;;;;4.80;3.63;;;;;;;12.82;82.70;97601.47;6242101;28;20618;-45
2023/06/17 02:59:18;;;;;;;4.57;3.83;;;;;;;12.87;82.15;97609.53;6224391;28;20228;-46
2023/06/17 03:02:23;;;;;;;4.27;3.47;;;;;;;13.01;80.52;97604.53;6225366;28;20231;-44
2023/06/17 03:05:26;;;;;;;3.93;3.53;;;;;;;13.06;81.14;97603.75;6240996;28;20682;-45
2023/06/17 03:08:33;;;;;;;3.97;3.30;;;;;;;13.00;81.55;97610.91;6224481;28;20603;-43
2023/06/17 03:11:36;;;;;;;4.83;3.53;;;;;;;12.96;81.90;97612.53;6211919;28;20249;-43
2023/06/17 03:14:40;;;;;;;3.97;3.60;;;;;;;12.91;82.04;97607.94;6237283;28;20246;-44
2023/06/17 03:17:47;;;;;;;3.70;3.20;;;;;;;12.85;82.33;97605.47;6218700;28;20239;-43
2023/06/17 03:20:53;;;;;;;4.20;3.80;;;;;;;12.79;82.31;97611.88;6223136;28;20219;-44
2023/06/17 03:23:58;;;;;;;4.30;3.90;;;;;;;12.73;82.30;97597.66;6241879;28;20269;-44
2023/06/17 03:27:01;;;;;;;4.23;3.83;;;;;;;12.76;82.75;97594.50;6217969;28;20232;-44
2023/06/17 03:30:06;;;;;;;4.40;3.80;;;;;;;12.22;82.89;97519.84;6224325;28;20678;-43
2023/06/17 03:33:09;;;;;;;4.67;4.27;;;;;;;12.80;82.75;97600.91;6205591;28;20658;-43
2023/06/17 03:36:12;;;;;;;4.67;4.23;;;;;;;12.90;83.02;97613.53;6222851;28;20215;-44
2023/06/17 03:39:14;;;;;;;4.57;3.93;;;;;;;12.96;83.03;97604.50;6239628;28;20232;-44
2023/06/17 03:42:16;;;;;;;4.70;4.17;;;;;;;13.11;82.59;97606.47;6239378;28;20293;-43
2023/06/17 03:45:19;;;;;;;5.20;4.13;;;;;;;13.15;81.82;97597.66;6222235;28;20213;-43
2023/06/17 03:48:23;;;;;;;5.70;5.10;;;;;;;13.38;80.35;97609.00;6222801;28;20235;-44
2023/06/17 03:51:25;;;;;;;6.50;5.47;;;;;;;13.58;78.80;97608.28;6242121;28;20226;-44
2023/06/17 03:54:28;;;;;;;4.93;4.30;;;;;;;13.53;79.44;97589.53;6239437;28;20277;-44
2023/06/17 03:57:30;;;;;;;5.13;4.63;;;;;;;13.66;79.40;97611.25;6207525;28;20355;-44
2023/06/17 04:00:33;;;;;;;5.37;4.20;;;;;;;13.74;79.69;97609.13;6238343;28;20715;-44
2023/06/17 04:03:35;;;;;;;5.53;4.57;;;;;;;13.77;78.97;97609.41;6236746;28;20230;-46
2023/06/17 04:06:37;;;;;;;4.67;3.90;;;;;;;13.76;79.14;97602.44;6222411;28;20595;-45
2023/06/17 04:09:39;;;;;;;6.40;4.67;;;;;;;13.86;79.51;97602.47;6216398;28;20264;-43
2023/06/17 04:12:58;;;;;;;5.40;4.80;;;;;;;14.04;77.16;97595.00;6244380;28;20437;-43
2023/06/17 04:16:02;;;;;;;5.70;4.57;;;;;;;14.08;77.07;97591.50;6237637;28;20246;-44
2023/06/17 04:19:04;;;;;;;5.47;4.60;;;;;;;14.15;76.99;97593.94;6207333;28;20316;-43
2023/06/17 04:22:06;;;;;;;5.67;4.47;;;;;;;14.15;76.87;97594.75;6218275;28;20326;-45
2023/06/17 04:25:11;;;;;;;5.37;4.87;;;;;;;13.99;76.74;97560.16;6203799;28;20230;-44
2023/06/17 04:28:18;;;;;;;6.53;4.43;;;;;;;14.20;77.80;97588.59;6240267;28;20235;-43
2023/06/17 04:31:20;;;;;;;7.47;5.10;;;;;;;14.35;76.85;97599.31;6220921;28;20266;-45
2023/06/17 04:34:23;;;;;;;5.67;4.93;;;;;;;14.58;74.68;97600.69;6221359;28;20231;-45
2023/06/17 04:37:28;;;;;;;6.37;4.53;;;;;;;14.60;74.92;97597.72;6220634;28;20697;-45
2023/06/17 04:40:31;;;;;;;7.13;5.40;;;;;;;14.62;74.61;97582.97;6239647;28;20235;-45
2023/06/17 04:43:38;;;;;;;5.10;4.60;;;;;;;14.74;74.07;97603.34;6238545;28;20235;-44
2023/06/17 04:46:45;;;;;;;4.97;4.47;;;;;;;14.74;74.94;97603.34;6240507;28;22409;-45
2023/06/17 04:49:51;;;;;;;4.93;4.43;;;;;;;14.80;74.46;97607.63;6198702;28;20728;-44
2023/06/17 04:52:54;;;;;;;5.80;4.90;;;;;;;14.86;73.57;97603.88;6220126;28;20232;-45
2023/06/17 04:56:00;;;;;;;6.40;4.97;;;;;;;14.69;73.10;97582.72;6236785;28;20240;-43
2023/06/17 04:59:04;;;;;;;5.03;4.53;;;;;;;14.91;73.55;97614.56;6241111;28;20231;-43
2023/06/17 05:02:06;;;;;;;5.73;4.90;;;;;;;14.94;73.87;97611.38;6239133;28;20233;-43
2023/06/17 05:05:09;;;;;;;4.80;4.30;;;;;;;14.99;73.58;97602.50;6216311;28;20615;-44
2023/06/17 05:08:11;;;;;;;4.90;4.30;;;;;;;15.03;73.37;97608.94;6221893;28;20245;-44
2023/06/17 05:11:15;;;;;;;6.13;4.50;;;;;;;15.32;70.87;97611.78;6218245;28;20621;-44
2023/06/17 05:14:18;;;;;;;5.63;3.97;;;;;;;15.18;71.36;97608.91;6203094;28;20238;-43
2023/06/17 05:17:22;;;;;;;5.63;4.90;;;;;;;15.16;71.08;97609.16;6221735;28;20656;-45
2023/06/17 05:20:25;;;;;;;4.83;4.33;;;;;;;15.02;71.94;97607.31;6235231;28;20285;-43
2023/06/17 05:23:27;;;;;;;4.13;3.73;;;;;;;14.93;72.72;97612.44;6220439;28;20328;-44
2023/06/17 05:26:30;;;;;;;6.70;4.17;;;;;;;14.88;73.26;97625.88;6222861;28;20254;-44
2023/06/17 05:29:32;;;;;;;3.67;3.37;;;;;;;14.85;73.67;97615.66;6224386;28;20233;-45
2023/06/17 05:32:35;;;;;;;4.00;3.70;;;;;;;14.82;74.00;97616.19;6224422;28;20226;-44
2023/06/17 05:35:38;;;;;;;4.63;3.83;;;;;;;14.76;74.69;97623.44;6246370;28;20309;-45
2023/06/17 05:38:40;;;;;;;4.47;4.00;;;;;;;14.89;74.30;97624.78;6243080;28;20322;-45
2023/06/17 05:41:42;;;;;;;5.43;4.60;;;;;;;15.29;71.40;97618.53;6241559;28;20220;-44
2023/06/17 05:44:44;;;;;;;5.57;3.90;;;;;;;15.14;72.37;97610.50;6242550;28;20249;-45
2023/06/17 05:47:47;;;;;;;4.70;4.20;;;;;;;15.18;72.37;97617.75;6208314;28;20590;-44
2023/06/17 05:50:50;;;;;;;4.90;4.40;;;;;;;15.22;72.06;97620.66;6225993;28;20227;-45
2023/06/17 05:53:53;;;;;;;4.70;3.73;;;;;;;15.26;71.12;97611.00;6244676;28;20243;-44
2023/06/17 05:56:55;;;;;;;5.70;3.70;;;;;;;15.44;71.06;97623.03;6205996;28;20246;-44
2023/06/17 05:59:57;;;;;;;4.53;3.70;;;;;;;15.55;71.11;97621.91;6242311;28;20242;-43
2023/06/17 06:03:00;;;;;;;4.00;3.60;;;;;;;15.65;69.95;97616.50;6224138;28;20227;-44
2023/06/17 06:06:02;;;;;;;3.67;3.33;;;;;;;15.64;71.22;97622.97;6246483;28;20233;-44
2023/06/17 06:09:04;;;;;;;3.80;3.40;;;;;;;15.68;70.11;97618.66;6235957;28;20228;-44
2023/06/17 06:12:07;;;;;;;4.40;3.20;;;;;;;15.78;68.95;97620.50;6241849;28;20766;-43
2023/06/17 06:15:10;;;;;;;3.47;3.17;;;;;;;16.01;67.24;97635.16;6223992;28;20293;-44
2023/06/17 06:18:13;;;;;;;6.00;3.10;;;;;;;16.06;68.21;97632.44;6200718;28;20212;-45
2023/06/17 06:21:15;;;;;;;5.27;3.47;;;;;;;16.43;64.67;97633.78;6205174;28;20215;-44
2023/06/17 06:24:18;;;;;;;4.93;3.40;;;;;;;16.40;64.18;97635.16;6242972;28;20218;-44
2023/06/17 06:27:21;;;;;;;3.50;3.20;;;;;;;16.42;64.39;97640.25;6245522;28;20231;-44
2023/06/17 06:30:23;;;;;;;5.83;3.47;;;;;;;16.49;65.34;97630.75;6219148;28;20865;-44
2023/06/17 06:33:29;;;;;;;4.33;3.23;;;;;;;16.51;64.28;97623.25;6240584;28;20231;-45
2023/06/17 06:36:32;;;;;;;3.93;3.20;;;;;;;16.66;62.69;97625.00;6222092;28;20223;-49
2023/06/17 06:39:35;;;;;;;3.07;2.77;;;;;;;16.81;63.26;97632.16;6223550;28;20663;-47
2023/06/17 06:42:37;;;;;;;3.70;3.13;;;;;;;16.88;62.78;97624.56;6224499;28;20227;-47
2023/06/17 06:45:54;;;;;;;3.97;2.90;;;;;;;16.92;62.90;97638.25;6239783;28;20289;-46
2023/06/17 06:48:59;;;;;;;3.30;3.00;;;;;;;17.36;58.57;97634.56;6207394;28;20231;-48
2023/06/17 06:52:02;;;;;;;3.63;3.13;;;;;;;17.26;59.24;97643.56;6224144;28;20605;-45
2023/06/17 06:55:05;;;;;;;3.07;2.77;;;;;;;17.25;60.84;97645.44;6236862;28;20236;-48
2023/06/17 06:58:09;;;;;;;5.83;3.60;;;;;;;17.17;60.06;97616.44;6237692;28;20357;-55
2023/06/17 07:01:11;;;;;;;3.57;3.23;;;;;;;17.49;60.64;97639.28;6242161;28;20231;-44
2023/06/17 07:04:14;;;;;;;2.87;2.67;;;;;;;17.51;60.88;97637.88;6245180;28;20592;-46
2023/06/17 07:07:17;;;;;;;3.70;3.10;;;;;;;17.67;61.18;97638.50;6217961;28;20723;-44
2023/06/17 07:10:20;;;;;;;3.97;3.40;;;;;;;17.88;60.64;97636.38;6223294;28;20234;-45
2023/06/17 07:13:23;;;;;;;4.80;3.30;;;;;;;17.84;61.12;97640.75;6210396;28;20236;-44
2023/06/17 07:16:27;;;;;;;3.37;3.07;;;;;;;17.79;60.57;97636.22;6222798;28;20798;-45
2023/06/17 07:19:30;;;;;;;3.60;3.30;;;;;;;17.96;60.71;97637.63;6221330;28;20857;-45
2023/06/17 07:22:32;;;;;;;3.77;3.47;;;;;;;17.93;60.29;97622.84;6218243;28;20244;-45
2023/06/17 07:25:36;;;;;;;4.33;3.30;;;;;;;18.18;59.23;97642.44;6241602;28;20241;-44
2023/06/17 07:28:39;;;;;;;4.17;3.20;;;;;;;18.20;58.67;97651.03;6206114;28;20235;-43
2023/06/17 07:31:41;;;;;;;5.13;3.17;;;;;;;18.13;59.56;97664.06;6237404;28;20566;-43
2023/06/17 07:34:43;;;;;;;5.37;3.33;;;;;;;18.09;57.73;97653.09;6239796;28;20243;-43
2023/06/17 07:37:45;;;;;;;3.37;3.07;;;;;;;18.07;60.35;97649.84;6221315;28;20235;-44
2023/06/17 07:40:48;;;;;;;3.60;3.30;;;;;;;18.01;58.00;97648.34;6235748;28;20231;-44
2023/06/17 07:43:50;;;;;;;5.17;3.47;;;;;;;17.90;61.40;97634.19;6240676;28;20819;-44
2023/06/17 07:46:52;;;;;;;3.37;3.00;;;;;;;17.94;61.09;97637.13;6229945;28;20697;-45
2023/06/17 07:49:55;;;;;;;3.97;3.40;;;;;;;18.03;61.58;97630.00;6234014;28;20919;-44
2023/06/17 07:52:57;;;;;;;3.63;3.20;;;;;;;18.14;61.59;97628.75;6238024;28;20239;-43
2023/06/17 07:55:59;;;;;;;3.53;3.23;;;;;;;18.20;61.48;97635.66;6232084;28;20232;-45
2023/06/17 07:59:02;;;;;;;5.27;3.50;;;;;;;18.39;59.22;97632.97;6238677;28;20233;-44
2023/06/17 08:02:04;;;;;;;3.87;3.50;;;;;;;18.47;58.99;97634.16;6235051;28;20289;-44
2023/06/17 08:05:10;;;;;;;4.40;3.20;;;;;;;18.61;57.47;97629.63;6240026;28;20258;-44
2023/06/17 08:08:12;;;;;;;4.43;3.23;;;;;;;18.83;55.47;97625.53;6226429;28;20302;-44
2023/06/17 08:11:15;;;;;;;3.60;3.23;;;;;;;18.89;55.47;97633.25;6223626;28;20320;-45
2023/06/17 08:14:17;;;;;;;5.10;3.47;;;;;;;18.81;58.25;97642.81;6230810;28;20223;-43
2023/06/17 08:17:20;;;;;;;4.07;3.67;;;;;;;19.08;55.30;97633.19;6230942;28;20577;-44
2023/06/17 08:20:23;;;;;;;4.10;3.70;;;;;;;19.14;54.11;97642.78;6236261;28;20261;-43
2023/06/17 08:23:25;;;;;;;4.57;3.43;;;;;;;18.92;57.05;97646.16;6232585;28;20216;-43
2023/06/17 08:26:28;;;;;;;4.37;3.13;;;;;;;18.96;53.95;97640.94;6239268;28;20713;-45
2023/06/17 08:29:31;;;;;;;5.93;3.47;;;;;;;18.47;56.14;97631.47;6203186;28;20696;-43
2023/06/17 08:32:33;;;;;;;4.63;3.60;;;;;;;18.32;57.74;97640.59;6220983;28;20233;-43
2023/06/17 08:35:35;;;;;;;3.83;3.10;;;;;;;18.40;60.16;97625.66;6227936;28;20314;-44
2023/06/17 08:38:37;;;;;;;3.37;3.07;;;;;;;18.59;57.70;97642.63;6235251;28;20227;-46
2023/06/17 08:41:42;;;;;;;4.23;3.27;;;;;;;18.93;56.38;97633.47;6237820;28;20242;-44
2023/06/17 08:44:46;;;;;;;6.10;3.60;;;;;;;18.93;54.02;97636.97;6235175;28;20316;-45
2023/06/17 08:47:48;;;;;;;3.60;3.30;;;;;;;19.00;55.98;97628.47;6221289;28;20309;-44
2023/06/17 08:50:53;;;;;;;4.20;3.20;;;;;;;19.01;53.52;97630.06;6237114;28;20245;-45
2023/06/17 08:53:56;;;;;;;3.23;2.93;;;;;;;19.10;55.75;97622.88;6236015;28;20701;-44
2023/06/17 08:56:59;;;;;;;3.67;3.37;;;;;;;19.47;53.54;97631.91;6232211;28;20231;-44
2023/06/17 09:00:04;;;;;;;3.93;3.53;;;;;;;19.30;54.85;97627.88;6237663;28;20234;-43
2023/06/17 09:03:08;;;;;;;4.13;3.50;;;;;;;19.31;54.73;97631.41;6231481;28;20248;-45
2023/06/17 09:06:25;;;;;;;6.03;3.37;;;;;;;19.52;54.00;97626.41;6217671;28;20303;-45
2023/06/17 09:09:28;;;;;;;4.07;3.67;;;;;;;19.53;52.63;97619.91;6230919;28;20250;-45
2023/06/17 09:12:37;;;;;;;3.63;3.33;;;;;;;19.71;53.80;97626.31;6226608;28;20678;-45
2023/06/17 09:15:40;;;;;;;18.37;7.97;;;;;;;19.43;52.48;97617.41;6222069;28;20224;-43
2023/06/17 09:18:42;;;;;;;6.87;4.20;;;;;;;19.25;54.43;97627.97;6217584;28;20223;-43
2023/06/17 09:21:48;;;;;;;5.87;4.13;;;;;;;19.09;55.76;97632.06;6212644;28;20589;-44
2023/06/17 09:24:57;;;;;;;3.83;3.50;;;;;;;19.18;54.94;97635.69;6230976;28;20766;-43
2023/06/17 09:28:00;;;;;;;5.83;4.17;;;;;;;19.25;56.02;97613.69;6224064;28;20220;-44
2023/06/17 09:31:06;;;;;;;11.50;5.20;;;;;;;19.26;55.31;97616.09;6223560;28;20625;-44
2023/06/17 09:34:10;;;;;;;4.80;4.10;;;;;;;19.42;53.25;97613.91;6222350;28;20310;-44
2023/06/17 09:37:12;;;;;;;4.20;3.70;;;;;;;19.41;54.28;97623.13;6214987;28;20236;-45
2023/06/17 09:40:15;;;;;;;6.87;4.10;;;;;;;19.13;55.00;97605.28;6213307;28;20223;-44
2023/06/17 09:43:18;;;;;;;5.43;4.17;;;;;;;19.15;55.93;97594.97;6204625;28;20223;-43
2023/06/17 09:46:35;;;;;;;6.00;4.50;;;;;;;19.37;56.48;97600.50;6213978;28;20747;-46
2023/06/17 09:49:38;;;;;;;4.80;4.10;;;;;;;19.37;54.87;97605.91;6211443;28;20699;-43
2023/06/17 09:52:41;;;;;;;4.50;3.80;;;;;;;19.23;54.75;97597.00;6222348;28;20688;-43
2023/06/17 09:55:43;;;;;;;4.37;3.60;;;;;;;19.33;56.13;97608.38;6197546;28;20306;-44
2023/06/17 09:58:47;;;;;;;4.20;3.80;;;;;;;19.89;54.00;97603.75;6197128;28;20299;-43
2023/06/17 10:01:50;;;;;;;4.20;3.80;;;;;;;19.98;60.03;97593.81;6202673;28;20602;-43
2023/06/17 10:04:53;;;;;;;3.67;3.37;;;;;;;20.17;51.19;97585.53;6207130;28;20224;-46
2023/06/17 10:07:57;;;;;;;3.50;3.17;;;;;;;20.23;52.82;97591.63;6208627;28;20228;-44
2023/06/17 10:11:00;;;;;;;4.00;3.60;;;;;;;20.03;53.96;97579.38;6212806;28;20224;-43
2023/06/17 10:14:07;;;;;;;4.97;3.17;;;;;;;19.97;51.50;97592.22;6212019;28;20607;-43
2023/06/17 10:17:11;;;;;;;3.87;2.93;;;;;;;19.83;55.06;97591.44;6204242;28;20246;-43
2023/06/17 10:20:15;;;;;;;4.33;3.00;;;;;;;19.64;55.31;97597.00;6195147;28;20494;-44
2023/06/17 10:23:20;;;;;;;4.83;3.20;;;;;;;19.53;55.22;97593.66;6202070;28;20227;-44
2023/06/17 10:26:23;;;;;;;4.00;3.67;;;;;;;19.54;56.78;97589.88;6213836;28;20224;-46
2023/06/17 10:29:26;;;;;;;4.03;3.00;;;;;;;19.44;58.02;97579.25;6210178;28;20777;-45
2023/06/17 10:32:28;;;;;;;3.33;2.97;;;;;;;19.44;60.13;97589.28;6206776;28;20223;-44
2023/06/17 10:35:40;;;;;;;4.03;3.37;;;;;;;19.34;57.75;97580.28;6216268;28;20318;-43
2023/06/17 10:38:56;;;;;;;4.73;3.27;;;;;;;19.49;54.99;97568.34;6210897;28;20243;-43
2023/06/17 10:41:59;;;;;;;3.60;3.30;;;;;;;19.78;53.73;97572.66;6209969;28;20617;-43
2023/06/17 10:45:12;;;;;;;3.30;3.00;;;;;;;19.89;54.38;97574.00;6212350;28;20596;-43
2023/06/17 10:48:19;;;;;;;5.50;3.33;;;;;;;19.90;50.56;97570.22;6211764;28;20221;-46
2023/06/17 10:51:23;;;;;;;3.50;3.13;;;;;;;19.79;53.99;97566.13;6209875;28;20736;-44
2023/06/17 10:54:52;;;;;;;3.60;3.30;;;;;;;19.60;57.56;97571.66;6211818;28;20279;-45
2023/06/17 10:57:57;;;;;;;5.57;3.17;;;;;;;19.47;60.46;97578.69;6224219;28;20300;-43
2023/06/17 11:01:01;;;;;;;3.50;3.20;;;;;;;19.32;61.31;97576.28;6217583;28;20310;-43
2023/06/17 11:04:07;;;;;;;3.70;3.37;;;;;;;19.21;64.16;97572.16;6216928;28;20244;-44
2023/06/17 11:07:13;;;;;;;3.50;3.20;;;;;;;19.17;66.47;97577.38;6234311;28;20357;-44
2023/06/17 11:10:17;;;;;;;4.17;3.70;;;;;;;19.52;54.73;97567.75;6230099;28;20235;-45
2023/06/17 11:13:23;;;;;;;3.57;3.27;;;;;;;19.98;55.55;97560.56;6235339;28;20239;-43
2023/06/17 11:16:26;;;;;;;5.23;3.67;;;;;;;20.41;51.25;97550.06;6236107;28;20393;-44
2023/06/17 11:19:28;;;;;;;4.17;3.77;;;;;;;20.67;47.69;97550.25;6231808;28;20650;-44
2023/06/17 11:22:30;;;;;;;3.40;3.10;;;;;;;21.00;48.19;97563.47;6232281;28;20224;-44
2023/06/17 11:25:33;;;;;;;3.40;3.10;;;;;;;21.28;46.23;97564.03;6235159;28;20314;-45
2023/06/17 11:28:49;;;;;;;5.37;3.00;;;;;;;21.40;45.43;97555.34;6236530;28;20236;-43
2023/06/17 11:31:53;;;;;;;4.10;3.17;;;;;;;21.45;44.50;97545.16;6221656;28;20773;-43
2023/06/17 11:34:56;;;;;;;5.50;3.40;;;;;;;21.15;45.98;97554.13;6233016;28;20721;-44
2023/06/17 11:37:59;;;;;;;3.73;3.33;;;;;;;20.92;46.22;97537.16;6235841;28;20220;-43
2023/06/17 11:41:02;;;;;;;4.40;3.30;;;;;;;20.92;45.93;97543.38;6235392;28;20232;-45
2023/06/17 11:44:05;;;;;;;4.20;2.90;;;;;;;21.24;46.35;97555.75;6237844;28;20261;-44
2023/06/17 11:47:09;;;;;;;3.53;3.23;;;;;;;21.36;44.26;97536.22;6223932;28;20262;-44
2023/06/17 11:50:11;;;;;;;3.80;2.93;;;;;;;21.41;43.56;97554.25;6243031;28;20277;-45
2023/06/17 11:53:14;;;;;;;3.70;3.20;;;;;;;21.28;45.41;97548.59;6230572;28;20747;-44
2023/06/17 11:56:21;;;;;;;3.60;3.30;;;;;;;21.19;46.39;97545.06;6230840;28;20247;-43
2023/06/17 11:59:24;;;;;;;3.37;2.97;;;;;;;21.24;48.71;97549.56;6222555;28;20227;-43
2023/06/17 12:02:30;;;;;;;3.40;3.10;;;;;;;21.34;49.89;97546.59;6217970;28;20368;-43
2023/06/17 12:05:33;;;;;;;4.00;3.27;;;;;;;21.78;44.18;97544.75;6231650;28;20223;-43
2023/06/17 12:08:37;;;;;;;5.33;2.93;;;;;;;21.87;40.47;97532.78;6235324;28;20219;-44
2023/06/17 12:11:40;;;;;;;3.40;3.10;;;;;;;21.97;40.36;97549.84;6237998;28;20615;-44
2023/06/17 12:14:42;;;;;;;3.60;3.00;;;;;;;21.83;40.74;97541.88;6235345;28;20223;-44
2023/06/17 12:17:48;;;;;;;4.53;3.57;;;;;;;21.66;44.88;97553.50;6218864;28;20238;-44
2023/06/17 12:20:50;;;;;;;3.00;2.80;;;;;;;21.52;48.19;97547.41;6238716;28;20651;-45
2023/06/17 12:23:56;;;;;;;6.07;3.60;;;;;;;21.24;50.82;97542.22;6235667;28;20226;-43
2023/06/17 12:26:59;;;;;;;2.97;2.77;;;;;;;21.13;53.60;97554.44;6223328;28;21862;-43
2023/06/17 12:30:03;;;;;;;4.33;3.30;;;;;;;20.96;45.81;97567.91;6228660;28;20220;-43
2023/06/17 12:33:06;;;;;;;5.40;3.67;;;;;;;20.93;47.75;97577.44;6216974;28;20220;-44
2023/06/17 12:36:08;;;;;;;5.83;3.77;;;;;;;20.58;51.45;97573.75;6225831;28;20314;-44
2023/06/17 12:39:10;;;;;;;6.10;3.97;;;;;;;20.51;52.16;97574.22;6238604;28;20246;-43
2023/06/17 12:42:12;;;;;;;4.63;3.63;;;;;;;20.51;51.64;97568.78;6221221;28;20222;-44
2023/06/17 12:45:15;;;;;;;4.33;3.00;;;;;;;21.19;46.26;97574.88;6225127;28;20266;-44
2023/06/17 12:48:17;;;;;;;2.53;2.33;;;;;;;20.89;45.78;97576.50;6222840;28;20215;-44
2023/06/17 12:51:19;;;;;;;2.97;2.33;;;;;;;20.67;47.74;97582.75;6219903;28;20239;-44
2023/06/17 12:54:23;;;;;;;3.83;2.27;;;;;;;20.55;47.32;97571.69;6230029;28;20266;-45
2023/06/17 12:57:26;;;;;;;2.80;2.50;;;;;;;20.61;47.77;97560.41;6237426;28;20369;-45
2023/06/17 13:00:29;;;;;;;3.00;2.20;;;;;;;20.75;47.35;97563.03;6214056;28;20227;-43
2023/06/17 13:03:32;;;;;;;29.03;4.53;;;;;;;21.11;44.74;97564.78;6216447;28;20228;-43
2023/06/17 13:06:37;;;;;;;1.90;1.80;;;;;;;20.94;44.46;97559.31;6236569;28;20305;-44
2023/06/17 13:09:41;;;;;;;2.17;1.60;;;;;;;21.06;43.57;97560.31;6232301;28;20547;-45
2023/06/17 13:12:44;;;;;;;2.20;1.70;;;;;;;21.36;45.55;97566.81;6243379;28;20232;-43
2023/06/17 13:15:47;;;;;;;1.60;1.50;;;;;;;21.33;42.93;97561.25;6219387;28;20220;-44
2023/06/17 13:18:53;;;;;;;3.07;1.77;;;;;;;21.26;42.79;97566.28;6241968;28;20701;-44
2023/06/17 13:21:58;;;;;;;1.70;1.53;;;;;;;21.11;44.23;97556.66;6245282;28;20717;-44
2023/06/17 13:25:00;;;;;;;2.00;1.90;;;;;;;21.05;43.56;97563.34;6230286;28;20297;-43
2023/06/17 13:28:02;;;;;;;1.80;1.60;;;;;;;21.02;45.02;97567.47;6226929;28;20268;-43
2023/06/17 13:31:05;;;;;;;1.87;1.77;;;;;;;21.15;45.81;97554.94;6227010;28;20784;-44
2023/06/17 13:34:08;;;;;;;2.10;1.83;;;;;;;21.28;46.87;97555.91;6231328;28;20662;-44
2023/06/17 13:37:10;;;;;;;2.57;2.37;;;;;;;21.56;42.74;97559.22;6236628;28;20320;-45
2023/06/17 13:40:13;;;;;;;3.13;2.00;;;;;;;21.83;43.31;97552.72;6228491;28;20713;-43
2023/06/17 13:43:16;;;;;;;2.20;2.00;;;;;;;21.72;40.88;97476.28;6231490;28;20231;-43
2023/06/17 13:46:18;;;;;;;2.20;2.00;;;;;;;22.20;37.60;97543.16;6229238;28;20314;-45
2023/06/17 13:49:21;;;;;;;5.03;2.37;;;;;;;22.09;42.03;97563.56;6234860;28;20246;-45
2023/06/17 13:52:23;;;;;;;2.43;2.00;;;;;;;22.03;40.21;97543.94;6231696;28;20223;-45
2023/06/17 13:55:26;;;;;;;3.87;2.30;;;;;;;22.08;39.38;97538.38;6234906;28;20373;-46
2023/06/17 13:58:28;;;;;;;2.57;2.10;;;;;;;21.91;40.74;97543.78;6200868;28;20699;-43
2023/06/17 14:01:30;;;;;;;2.83;2.40;;;;;;;21.84;40.46;97538.84;6191250;28;20231;-44
2023/06/17 14:04:32;;;;;;;2.27;2.07;;;;;;;22.16;40.42;97534.06;6208757;28;20698;-45
2023/06/17 14:07:34;;;;;;;3.37;2.10;;;;;;;22.15;41.56;97544.13;6213464;28;20310;-43
2023/06/17 14:10:37;;;;;;;3.97;2.10;;;;;;;22.08;40.27;97534.84;6203540;28;20236;-44
2023/06/17 14:13:39;;;;;;;2.77;2.27;;;;;;;22.25;38.46;97528.63;6214502;28;20279;-43
2023/06/17 14:16:43;;;;;;;2.63;2.27;;;;;;;22.52;38.37;97547.28;6210619;28;20245;-43
2023/06/17 14:19:46;;;;;;;2.90;2.13;;;;;;;22.64;39.04;97566.41;6217384;28;20232;-43
2023/06/17 14:22:49;;;;;;;4.00;2.30;;;;;;;22.64;35.85;97555.53;6216878;28;20258;-44
2023/06/17 14:25:51;;;;;;;3.47;2.43;;;;;;;22.38;38.02;97549.38;6183541;28;20310;-43